Time;durP1;ratioP1;P1;durP2;ratioP2;P2;SDS_P1;SDS_P2;PMS_P1;PMS_P2;Temp;Humidity;BMP_temperature;BMP_pressure;BME280_temperature;BME280_humidity;BME280_pressure;Samples;Min_cycle;Max_cycle;Signal;HPM_P1;HPM_P2
2022/01/28 00:01:26;;;;;;;3.20;3.00;;;;;;;0.26;100.00;96922.88;5016888;28;20846;-77
2022/01/28 00:04:01;;;;;;;5.23;3.60;;;;;;;0.24;100.00;96917.16;5015143;28;20490;-75
2022/01/28 00:06:28;;;;;;;4.10;3.70;;;;;;;0.20;100.00;96913.47;5014511;28;20446;-75
2022/01/28 00:08:55;;;;;;;5.10;4.00;;;;;;;0.12;100.00;96893.09;5017857;28;20422;-75
2022/01/28 00:11:21;;;;;;;4.90;2.80;;;;;;;0.33;100.00;96915.69;5016217;28;20434;-75
2022/01/28 00:13:55;;;;;;;4.27;3.87;;;;;;;0.34;100.00;96908.66;4999072;28;21023;-75
2022/01/28 00:38:29;;;;;;;5.73;5.03;;;;;;;0.60;100.00;96926.06;5014847;28;20490;-78
2022/01/28 00:40:56;;;;;;;6.33;5.30;;;;;;;0.68;100.00;96945.66;5016317;28;20947;-76
2022/01/28 00:43:23;;;;;;;7.97;5.83;;;;;;;0.76;100.00;96964.19;5013776;28;20490;-76
2022/01/28 00:45:50;;;;;;;5.73;5.30;;;;;;;0.41;100.00;96912.66;5013626;28;20522;-76
2022/01/28 00:48:17;;;;;;;7.47;6.67;;;;;;;0.67;100.00;96941.47;5014756;28;20458;-76
2022/01/28 00:50:44;;;;;;;6.97;6.27;;;;;;;0.44;100.00;96919.94;5014863;28;20465;-75
2022/01/28 00:53:11;;;;;;;6.33;5.40;;;;;;;0.62;100.00;96933.63;5013476;28;20518;-77
2022/01/28 00:55:38;;;;;;;8.27;6.37;;;;;;;0.91;100.00;96978.38;5013375;28;20451;-76
2022/01/28 00:58:05;;;;;;;6.10;5.53;;;;;;;0.75;100.00;96961.84;4997383;28;20436;-75
2022/01/28 01:00:32;;;;;;;5.73;5.07;;;;;;;0.62;100.00;96938.81;5014421;28;20493;-76
2022/01/28 01:02:58;;;;;;;8.80;7.53;;;;;;;0.80;100.00;96957.47;5013522;28;20529;-75
2022/01/28 01:05:26;;;;;;;7.43;5.63;;;;;;;0.61;100.00;96908.63;4997468;28;20488;-76
2022/01/28 01:07:52;;;;;;;8.37;7.57;;;;;;;0.65;100.00;96933.13;5013665;28;20467;-75
2022/01/28 01:10:19;;;;;;;7.40;6.00;;;;;;;0.38;100.00;96892.31;5013935;28;20431;-75
2022/01/28 01:12:47;;;;;;;6.27;5.67;;;;;;;0.99;100.00;97002.13;5013353;28;20538;-76
2022/01/28 01:15:18;;;;;;;7.40;6.70;;;;;;;1.01;100.00;96994.84;5013607;28;20979;-76
2022/01/28 01:18:01;;;;;;;5.30;4.80;;;;;;;1.02;100.00;96995.63;5014874;28;20415;-75
2022/01/28 01:25:42;;;;;;;9.77;7.10;;;;;;;0.84;100.00;96968.16;5013059;28;20557;-76
2022/01/28 01:28:11;;;;;;;8.57;7.23;;;;;;;0.85;100.00;96980.16;4996804;28;20501;-76
2022/01/28 01:30:43;;;;;;;5.90;5.30;;;;;;;0.99;100.00;97014.38;5013110;28;20862;-75
2022/01/28 01:33:10;;;;;;;7.43;6.73;;;;;;;0.81;100.00;96989.50;4996392;28;20482;-76
2022/01/28 01:35:38;;;;;;;6.73;6.07;;;;;;;0.76;100.00;96982.41;5013488;28;20443;-75
2022/01/28 01:38:06;;;;;;;3.97;3.67;;;;;;;0.44;100.00;96942.56;5014090;28;20521;-75
2022/01/28 01:40:41;;;;;;;4.47;4.07;;;;;;;0.68;100.00;96979.50;5012995;28;20443;-75
2022/01/28 01:43:16;;;;;;;4.90;4.47;;;;;;;0.78;100.00;97005.56;5012676;28;20998;-76
2022/01/28 01:45:52;;;;;;;4.20;3.80;;;;;;;0.23;100.00;96923.38;5012536;28;20522;-75
2022/01/28 01:53:50;;;;;;;5.90;5.30;;;;;;;0.49;100.00;96979.03;5012361;28;20882;-75
2022/01/28 01:56:19;;;;;;;5.37;4.37;;;;;;;0.91;100.00;97026.00;5012656;28;20438;-75
2022/01/28 01:58:47;;;;;;;4.63;4.23;;;;;;;0.91;100.00;97036.41;5012243;28;20435;-75
2022/01/28 02:01:13;;;;;;;6.07;4.63;;;;;;;0.70;100.00;96999.03;5012746;28;20449;-75
2022/01/28 02:03:40;;;;;;;8.00;4.33;;;;;;;0.70;100.00;97019.06;5014090;28;20990;-75
2022/01/28 02:06:07;;;;;;;5.67;4.23;;;;;;;0.91;100.00;97041.63;5012638;28;20828;-75
2022/01/28 02:08:35;;;;;;;5.83;5.20;;;;;;;0.55;100.00;96985.88;4996174;28;20525;-74
2022/01/28 02:11:02;;;;;;;5.50;4.73;;;;;;;0.80;100.00;97030.34;5013571;28;20439;-75
2022/01/28 02:13:33;;;;;;;3.63;3.30;;;;;;;1.01;100.00;97048.75;5013392;28;20486;-75
2022/01/28 02:16:01;;;;;;;8.43;4.27;;;;;;;1.03;100.00;97054.47;5012257;28;20443;-75
2022/01/28 02:18:27;;;;;;;4.07;3.63;;;;;;;0.78;100.00;97021.97;5014374;28;20435;-77
2022/01/28 02:21:01;;;;;;;3.47;3.17;;;;;;;0.80;100.00;97027.75;5012863;28;20465;-74
2022/01/28 02:23:28;;;;;;;5.40;4.90;;;;;;;0.71;100.00;97010.22;5013745;28;20458;-75
2022/01/28 02:25:58;;;;;;;3.50;3.20;;;;;;;0.62;100.00;97007.25;5013456;28;20471;-75
2022/01/28 02:28:26;;;;;;;2.90;2.57;;;;;;;0.99;100.00;97056.03;5012032;28;20494;-75
2022/01/28 02:30:53;;;;;;;3.07;2.80;;;;;;;0.57;100.00;97010.59;5010672;28;20477;-77
2022/01/28 02:33:23;;;;;;;2.80;2.60;;;;;;;0.76;100.00;97038.88;5012239;28;20472;-75
2022/01/28 02:35:50;;;;;;;7.23;4.73;;;;;;;1.01;100.00;97077.38;5011058;28;20470;-77
2022/01/28 02:38:21;;;;;;;7.30;2.57;;;;;;;0.69;100.00;97048.72;5010676;28;20431;-77
2022/01/28 02:40:56;;;;;;;2.80;2.60;;;;;;;0.73;100.00;97047.97;5015784;28;20429;-75
2022/01/28 02:43:42;;;;;;;2.63;2.43;;;;;;;0.98;100.00;97075.28;4998016;28;20859;-75
2022/01/28 02:46:12;;;;;;;2.93;2.53;;;;;;;0.48;100.00;97004.25;4996718;28;20497;-77
2022/01/28 02:48:53;;;;;;;6.60;2.83;;;;;;;0.89;100.00;97070.50;4994637;28;20895;-77
2022/01/28 02:51:22;;;;;;;2.63;2.43;;;;;;;0.92;100.00;97077.03;4997678;28;20483;-77
2022/01/28 02:53:55;;;;;;;2.20;1.77;;;;;;;0.83;100.00;97055.88;5014849;28;20491;-78
2022/01/28 02:58:50;;;;;;;2.60;2.40;;;;;;;0.91;100.00;97074.66;5016527;28;20518;-77
2022/01/28 03:01:18;;;;;;;2.47;2.33;;;;;;;0.84;100.00;97075.66;5016388;28;20501;-77
2022/01/28 03:03:47;;;;;;;2.43;2.23;;;;;;;0.85;100.00;97084.25;5014493;28;20574;-77
2022/01/28 03:06:16;;;;;;;3.00;2.70;;;;;;;0.86;100.00;97085.84;5014726;28;20505;-77
2022/01/28 03:08:50;;;;;;;2.87;2.63;;;;;;;0.76;100.00;97054.50;5014375;28;20462;-77
2022/01/28 03:19:22;;;;;;;2.63;2.43;;;;;;;0.73;100.00;97083.59;5015672;28;20513;-75
2022/01/28 03:21:56;;;;;;;2.30;2.20;;;;;;;0.71;100.00;97081.25;5016798;28;20434;-75
2022/01/28 03:24:24;;;;;;;3.20;2.90;;;;;;;0.73;100.00;97076.59;5000742;28;20463;-77
2022/01/28 03:26:55;;;;;;;3.80;3.40;;;;;;;0.74;100.00;97091.16;5014565;28;20474;-77
2022/01/28 03:29:22;;;;;;;3.43;2.90;;;;;;;0.68;100.00;97071.34;5014294;28;20509;-77
2022/01/28 03:31:50;;;;;;;4.37;2.93;;;;;;;0.88;100.00;97110.56;5014170;28;20841;-77
2022/01/28 03:34:16;;;;;;;3.97;3.40;;;;;;;0.63;100.00;97079.06;5013954;28;20470;-77
2022/01/28 03:36:43;;;;;;;4.63;3.20;;;;;;;0.78;100.00;97109.69;5014257;28;20892;-77
2022/01/28 03:39:11;;;;;;;3.50;3.20;;;;;;;0.63;100.00;97079.06;4997826;28;20525;-77
2022/01/28 03:41:38;;;;;;;5.30;3.20;;;;;;;0.79;100.00;97119.84;5015554;28;20434;-77
2022/01/28 03:44:05;;;;;;;3.43;2.90;;;;;;;0.61;100.00;97095.97;4997838;28;20505;-77
2022/01/28 03:46:33;;;;;;;5.80;2.40;;;;;;;0.55;100.00;97108.94;5015240;28;20434;-78
2022/01/28 03:49:00;;;;;;;6.20;3.30;;;;;;;0.63;100.00;97120.69;4997890;28;20497;-75
2022/01/28 03:51:27;;;;;;;7.83;3.40;;;;;;;0.68;100.00;97125.97;4997561;28;20442;-75
2022/01/28 03:53:54;;;;;;;4.20;2.90;;;;;;;0.56;100.00;97094.09;4997390;28;20500;-76
2022/01/28 03:56:21;;;;;;;4.03;3.27;;;;;;;0.85;100.00;97134.50;5013512;28;20439;-75
2022/01/28 03:58:47;;;;;;;4.13;3.13;;;;;;;0.81;100.00;97123.00;5013695;28;20513;-75
2022/01/28 04:01:24;;;;;;;3.50;2.60;;;;;;;0.87;100.00;97129.84;5016528;28;20471;-77
2022/01/28 04:11:52;;;;;;;3.07;2.77;;;;;;;0.84;100.00;97130.31;5014002;28;20489;-74
2022/01/28 04:19:40;;;;;;;13.53;3.40;;;;;;;0.64;100.00;97111.09;5013716;28;20455;-77
2022/01/28 04:22:07;;;;;;;2.20;2.10;;;;;;;0.59;100.00;97110.00;5013060;28;20481;-75
2022/01/28 04:24:34;;;;;;;6.00;3.80;;;;;;;0.64;100.00;97117.06;5012813;28;20848;-74
2022/01/28 04:27:00;;;;;;;3.07;2.70;;;;;;;0.36;100.00;97076.41;4996785;28;20537;-74
2022/01/28 04:29:27;;;;;;;2.60;2.40;;;;;;;0.56;100.00;97127.91;4996650;28;20497;-78
2022/01/28 04:31:54;;;;;;;3.40;2.80;;;;;;;0.69;100.00;97142.38;4996976;28;20538;-75
2022/01/28 04:34:22;;;;;;;6.70;3.80;;;;;;;0.80;100.00;97160.47;5012921;28;20561;-77
2022/01/28 04:39:31;;;;;;;4.73;3.23;;;;;;;0.73;100.00;97154.66;5012993;28;20444;-77
2022/01/28 04:42:15;;;;;;;4.57;4.13;;;;;;;0.62;100.00;97165.97;5014408;28;20517;-75
2022/01/28 04:47:20;;;;;;;4.70;3.70;;;;;;;0.41;100.00;97144.13;5012910;28;20906;-77
2022/01/28 04:55:25;;;;;;;4.93;3.10;;;;;;;0.80;100.00;97222.94;5013914;28;20889;-75
2022/01/28 05:08:36;;;;;;;3.30;3.00;;;;;;;0.67;100.00;97201.66;5013634;28;20466;-75
2022/01/28 05:14:13;;;;;;;4.20;3.83;;;;;;;0.80;100.00;97217.75;5011571;28;20459;-77
2022/01/28 05:27:18;;;;;;;3.80;3.47;;;;;;;0.94;100.00;97241.59;5012062;28;20466;-75
2022/01/28 05:29:45;;;;;;;7.30;3.70;;;;;;;0.83;100.00;97243.28;5011896;28;20467;-74
2022/01/28 05:32:12;;;;;;;7.43;3.27;;;;;;;0.56;100.00;97185.16;4995619;28;20483;-75
2022/01/28 05:34:40;;;;;;;8.30;5.40;;;;;;;0.99;100.00;97259.88;4995252;28;20474;-75
2022/01/28 05:37:08;;;;;;;6.00;3.37;;;;;;;0.64;100.00;97221.16;5011606;28;20431;-75
2022/01/28 05:39:35;;;;;;;12.40;3.97;;;;;;;0.69;100.00;97217.84;5012988;28;20469;-75
2022/01/28 05:42:02;;;;;;;4.23;3.10;;;;;;;0.65;100.00;97203.72;5012586;28;20431;-77
2022/01/28 05:44:29;;;;;;;9.33;3.60;;;;;;;0.73;100.00;97216.31;4995059;28;20495;-77
2022/01/28 05:47:01;;;;;;;9.13;3.73;;;;;;;0.78;100.00;97235.38;5012784;28;20463;-77
2022/01/28 05:49:28;;;;;;;4.20;3.50;;;;;;;0.91;100.00;97260.28;4995011;28;20546;-77
2022/01/28 05:51:55;;;;;;;7.63;2.77;;;;;;;0.78;100.00;97242.41;4995286;28;20539;-77
2022/01/28 05:54:22;;;;;;;9.40;3.17;;;;;;;0.79;100.00;97238.78;4994904;28;20550;-77
2022/01/28 05:56:50;;;;;;;8.00;3.10;;;;;;;0.56;100.00;97208.56;5012658;28;20853;-77
2022/01/28 05:59:19;;;;;;;4.73;3.43;;;;;;;0.90;100.00;97276.94;5012551;28;20458;-75
2022/01/28 06:01:45;;;;;;;3.70;3.20;;;;;;;0.56;100.00;97224.19;5010857;28;21014;-74
2022/01/28 06:04:15;;;;;;;2.90;2.60;;;;;;;0.49;100.00;97207.94;4994712;28;20458;-74
2022/01/28 06:06:42;;;;;;;4.90;2.50;;;;;;;0.56;100.00;97216.38;5010762;28;20443;-75
2022/01/28 06:09:09;;;;;;;4.67;1.97;;;;;;;0.87;100.00;97251.38;5010489;28;20470;-74
2022/01/28 06:11:37;;;;;;;3.60;3.30;;;;;;;0.78;100.00;97252.81;4994067;28;20501;-74
2022/01/28 06:14:04;;;;;;;9.30;2.80;;;;;;;0.34;100.00;97192.91;5010433;28;20483;-74
2022/01/28 06:16:30;;;;;;;5.03;2.60;;;;;;;0.46;100.00;97219.63;5011586;28;20439;-75
2022/01/28 06:18:57;;;;;;;5.40;2.93;;;;;;;0.45;100.00;97217.25;5011780;28;20435;-74
2022/01/28 06:21:24;;;;;;;3.83;3.37;;;;;;;0.76;100.00;97270.50;5010317;28;20443;-74
2022/01/28 06:23:52;;;;;;;8.07;3.40;;;;;;;0.88;100.00;97279.78;5009887;28;20983;-74
2022/01/28 06:26:19;;;;;;;7.10;2.57;;;;;;;0.57;100.00;97220.56;4993848;28;20477;-77
2022/01/28 06:28:45;;;;;;;4.00;2.97;;;;;;;0.76;100.00;97242.66;5010433;28;20487;-77
2022/01/28 06:31:12;;;;;;;2.40;2.20;;;;;;;0.69;100.00;97247.25;5010937;28;20470;-77
2022/01/28 06:33:39;;;;;;;2.80;2.23;;;;;;;0.69;100.00;97252.47;4994268;28;20470;-77
2022/01/28 06:36:06;;;;;;;4.73;3.00;;;;;;;0.37;100.00;97202.03;5010487;28;20489;-77
2022/01/28 06:38:33;;;;;;;3.30;2.50;;;;;;;0.61;100.00;97245.06;4994458;28;20461;-76
2022/01/28 06:41:00;;;;;;;14.53;3.07;;;;;;;0.70;100.00;97281.88;5012154;28;20478;-77
2022/01/28 06:43:26;;;;;;;4.53;3.27;;;;;;;0.20;100.00;97221.06;5012265;28;20457;-77
2022/01/28 06:45:53;;;;;;;4.70;3.17;;;;;;;0.52;100.00;97286.28;5011168;28;21010;-77
2022/01/28 06:48:20;;;;;;;3.20;2.90;;;;;;;0.56;100.00;97271.78;5010362;28;20470;-74
2022/01/28 06:50:48;;;;;;;2.97;2.63;;;;;;;0.57;100.00;97273.38;4994085;28;20478;-74
2022/01/28 06:53:15;;;;;;;5.03;2.20;;;;;;;0.74;100.00;97303.78;5011879;28;20491;-74
2022/01/28 06:55:43;;;;;;;4.83;2.20;;;;;;;0.70;100.00;97302.69;5012746;28;20857;-74
2022/01/28 06:58:10;;;;;;;10.93;3.50;;;;;;;0.18;100.00;97248.31;5012679;28;20501;-74
2022/01/28 07:00:37;;;;;;;3.90;2.63;;;;;;;0.65;100.00;97313.00;5011000;28;20489;-74
2022/01/28 07:03:06;;;;;;;2.60;2.40;;;;;;;0.53;100.00;97292.28;4995796;28;20435;-75
2022/01/28 07:05:33;;;;;;;2.53;2.33;;;;;;;0.44;100.00;97294.50;5012069;28;20504;-74
2022/01/28 07:08:00;;;;;;;4.93;2.93;;;;;;;0.53;100.00;97313.09;5012204;28;20474;-74
2022/01/28 07:10:27;;;;;;;3.90;2.27;;;;;;;0.62;100.00;97321.28;5011982;28;20513;-73
2022/01/28 07:12:57;;;;;;;6.00;2.80;;;;;;;0.32;100.00;97274.81;5011665;28;20435;-74
2022/01/28 07:15:25;;;;;;;4.00;2.47;;;;;;;0.63;100.00;97333.28;5009784;28;20447;-74
2022/01/28 07:18:02;;;;;;;3.43;2.37;;;;;;;0.51;100.00;97341.16;5009986;28;20557;-75
2022/01/28 07:20:30;;;;;;;4.40;2.53;;;;;;;0.52;100.00;97334.94;5010017;28;20439;-74
2022/01/28 07:22:57;;;;;;;3.13;2.83;;;;;;;0.40;100.00;97309.03;5010438;28;20470;-74
2022/01/28 07:25:24;;;;;;;5.30;3.00;;;;;;;0.52;100.00;97334.94;5009668;28;21030;-74
2022/01/28 07:27:51;;;;;;;10.87;3.23;;;;;;;0.71;100.00;97343.28;5011379;28;20470;-75
2022/01/28 07:30:18;;;;;;;4.47;2.70;;;;;;;0.39;100.00;97315.22;5011385;28;20540;-75
2022/01/28 07:32:48;;;;;;;3.00;2.80;;;;;;;0.51;100.00;97339.34;5011494;28;20466;-75
2022/01/28 07:35:15;;;;;;;3.10;2.53;;;;;;;0.63;100.00;97352.28;5011351;28;20443;-75
2022/01/28 07:37:41;;;;;;;5.33;2.40;;;;;;;0.43;100.00;97328.56;5013239;28;20450;-75
2022/01/28 07:40:09;;;;;;;3.33;2.30;;;;;;;0.78;100.00;97362.91;5014865;28;20436;-74
2022/01/28 07:42:39;;;;;;;5.10;3.00;;;;;;;0.52;100.00;97317.50;4997342;28;21013;-75
2022/01/28 07:45:08;;;;;;;3.50;3.03;;;;;;;0.82;100.00;97371.84;5013834;28;20498;-75
2022/01/28 07:47:37;;;;;;;5.67;2.57;;;;;;;0.19;100.00;97270.69;5014638;28;20435;-75
2022/01/28 07:50:07;;;;;;;3.70;3.40;;;;;;;0.61;100.00;97338.72;5013215;28;20465;-75
2022/01/28 07:52:34;;;;;;;2.27;2.00;;;;;;;0.66;100.00;97371.81;5014466;28;20443;-75
2022/01/28 07:55:01;;;;;;;9.30;2.70;;;;;;;0.79;100.00;97376.72;5013056;28;20453;-75
2022/01/28 07:57:30;;;;;;;6.00;2.43;;;;;;;0.80;100.00;97386.09;5013416;28;20443;-74
2022/01/28 07:59:57;;;;;;;4.87;2.87;;;;;;;0.73;100.00;97375.06;4997017;28;20451;-74
2022/01/28 08:02:24;;;;;;;4.50;2.73;;;;;;;0.69;100.00;97402.59;5013202;28;20443;-74
2022/01/28 08:04:50;;;;;;;4.67;4.27;;;;;;;0.73;100.00;97398.50;5013325;28;20927;-74
2022/01/28 08:07:17;;;;;;;2.40;2.10;;;;;;;0.73;100.00;97391.47;5013208;28;20858;-75
2022/01/28 08:09:44;;;;;;;7.30;5.00;;;;;;;0.77;100.00;97408.19;4996569;28;20983;-74
2022/01/28 08:12:10;;;;;;;4.17;2.10;;;;;;;0.85;100.00;97418.22;5012942;28;20474;-74
2022/01/28 08:14:37;;;;;;;4.30;1.77;;;;;;;0.30;100.00;97347.88;5012928;28;20537;-74
2022/01/28 08:17:04;;;;;;;3.70;2.10;;;;;;;0.97;100.00;97431.16;4996606;28;20882;-74
2022/01/28 08:19:30;;;;;;;1.93;1.70;;;;;;;0.95;100.00;97409.00;5013236;28;20476;-74
2022/01/28 08:21:57;;;;;;;2.83;2.03;;;;;;;0.92;100.00;97430.28;5012794;28;21048;-74
2022/01/28 08:24:24;;;;;;;5.70;2.20;;;;;;;0.99;100.00;97430.94;5012843;28;20490;-74
2022/01/28 08:26:51;;;;;;;8.67;3.13;;;;;;;0.93;100.00;97430.03;5012735;28;20489;-74
2022/01/28 08:29:17;;;;;;;4.00;2.57;;;;;;;1.13;100.00;97458.22;5012469;28;20491;-74
2022/01/28 08:31:45;;;;;;;2.60;2.40;;;;;;;0.55;100.00;97366.50;5013631;28;20423;-74
2022/01/28 08:34:12;;;;;;;2.63;2.43;;;;;;;1.06;100.00;97453.16;5012300;28;20561;-74
2022/01/28 08:36:39;;;;;;;6.87;2.60;;;;;;;1.01;100.00;97471.31;5012383;28;20462;-74
2022/01/28 08:39:08;;;;;;;5.17;3.30;;;;;;;1.08;100.00;97471.19;5013650;28;20466;-74
2022/01/28 08:41:38;;;;;;;6.73;2.10;;;;;;;0.90;100.00;97443.53;5012218;28;20439;-74
2022/01/28 08:44:05;;;;;;;5.70;2.30;;;;;;;0.78;100.00;97461.81;4996029;28;20463;-74
2022/01/28 08:46:32;;;;;;;12.33;4.30;;;;;;;0.92;100.00;97484.94;5028673;28;20438;-74
2022/01/28 08:49:01;;;;;;;7.80;2.30;;;;;;;0.72;100.00;97481.00;4997134;28;20474;-74
2022/01/28 08:51:28;;;;;;;6.50;2.57;;;;;;;0.48;100.00;97479.50;4995969;28;20875;-74
2022/01/28 08:53:54;;;;;;;2.30;1.93;;;;;;;0.41;100.00;97487.47;5011951;28;20469;-73
2022/01/28 08:56:21;;;;;;;5.13;2.17;;;;;;;0.55;100.00;97499.19;5011989;28;20504;-74
2022/01/28 08:58:47;;;;;;;5.57;3.60;;;;;;;0.33;100.00;97484.44;5020959;28;20470;-74
2022/01/28 09:01:15;;;;;;;3.70;2.50;;;;;;;0.43;100.00;97482.81;5012504;28;20952;-74
2022/01/28 09:03:44;;;;;;;4.50;1.83;;;;;;;0.54;100.00;97484.59;4995894;28;20518;-74
2022/01/28 09:06:11;;;;;;;2.90;2.40;;;;;;;0.26;100.00;97474.94;4995868;28;20447;-73
2022/01/28 09:08:39;;;;;;;2.57;1.90;;;;;;;0.43;100.00;97501.03;5011796;28;20463;-73
2022/01/28 09:13:48;;;;;;;7.33;4.73;;;;;;;0.67;100.00;97519.13;5013047;28;20964;-73
2022/01/28 09:16:17;;;;;;;3.60;2.70;;;;;;;0.53;100.00;97498.59;5011599;28;20875;-74
2022/01/28 09:18:45;;;;;;;5.73;1.80;;;;;;;0.75;100.00;97522.16;4995323;28;20509;-74
2022/01/28 09:21:12;;;;;;;2.20;1.73;;;;;;;0.79;100.00;97520.66;4995816;28;20533;-73
2022/01/28 09:23:40;;;;;;;3.60;2.07;;;;;;;0.47;100.00;97481.31;5011849;28;20455;-74
2022/01/28 09:26:07;;;;;;;3.07;2.47;;;;;;;0.78;100.00;97521.69;5012748;28;20610;-74
2022/01/28 09:28:34;;;;;;;5.93;2.80;;;;;;;0.70;100.00;97522.09;4997373;28;20482;-74
2022/01/28 09:31:01;;;;;;;12.43;2.43;;;;;;;0.61;100.00;97510.44;5012777;28;20502;-74
2022/01/28 09:33:28;;;;;;;2.23;1.83;;;;;;;0.40;100.00;97451.25;5012608;28;20474;-74
2022/01/28 09:35:54;;;;;;;3.83;1.80;;;;;;;0.77;100.00;97498.50;5011664;28;20462;-73
2022/01/28 09:38:21;;;;;;;4.83;2.00;;;;;;;0.74;100.00;97502.38;5012506;28;20505;-74
2022/01/28 09:40:49;;;;;;;3.93;1.90;;;;;;;0.98;100.00;97528.28;4995221;28;20443;-74
2022/01/28 09:43:16;;;;;;;5.10;1.93;;;;;;;0.96;100.00;97507.69;5012700;28;20492;-74
2022/01/28 09:45:47;;;;;;;3.50;2.10;;;;;;;1.06;100.00;97536.47;5012602;28;20477;-74
2022/01/28 09:48:16;;;;;;;3.73;2.10;;;;;;;1.05;100.00;97536.72;4994985;28;20797;-74
2022/01/28 09:50:44;;;;;;;7.80;2.00;;;;;;;1.12;100.00;97535.56;4994743;28;20515;-74
2022/01/28 09:53:11;;;;;;;5.20;2.03;;;;;;;0.94;100.00;97516.78;5011132;28;20516;-74
2022/01/28 09:55:42;;;;;;;2.60;1.73;;;;;;;1.16;100.00;97557.50;5011343;28;20467;-74
2022/01/28 09:58:09;;;;;;;4.53;3.70;;;;;;;1.12;100.00;97548.59;5010866;28;20470;-74
2022/01/28 10:00:35;;;;;;;6.77;2.03;;;;;;;1.12;100.00;97539.97;5010740;28;20803;-74
2022/01/28 10:03:05;;;;;;;8.90;4.67;;;;;;;1.18;100.00;97565.84;5010798;28;20820;-74
2022/01/28 10:05:33;;;;;;;10.73;4.80;;;;;;;1.17;100.00;97577.31;4994442;28;20454;-74
2022/01/28 10:08:00;;;;;;;3.90;1.77;;;;;;;1.10;100.00;97575.88;5010852;28;20497;-74
2022/01/28 10:10:33;;;;;;;7.80;5.93;;;;;;;1.10;100.00;97552.44;5010889;28;20502;-74
2022/01/28 10:13:27;;;;;;;4.13;1.90;;;;;;;0.95;100.00;97549.59;5010735;28;20982;-74
2022/01/28 10:15:59;;;;;;;5.70;1.73;;;;;;;1.10;100.00;97579.28;5010613;28;20534;-74
2022/01/28 10:18:49;;;;;;;5.50;2.23;;;;;;;1.18;100.00;97585.91;5010764;28;20465;-74
2022/01/28 10:21:26;;;;;;;3.87;2.10;;;;;;;1.31;100.00;97577.78;4994657;28;20427;-74
2022/01/28 10:24:13;;;;;;;4.10;1.83;;;;;;;1.36;100.00;97577.91;4994218;28;20557;-74
2022/01/28 10:26:47;;;;;;;2.23;1.87;;;;;;;1.33;100.00;97575.75;5010520;28;20864;-74
2022/01/28 10:29:21;;;;;;;8.67;3.00;;;;;;;1.20;100.00;97552.59;5011982;28;20419;-74
2022/01/28 10:31:52;;;;;;;8.13;3.50;;;;;;;1.14;100.00;97546.53;5010598;28;20535;-74
2022/01/28 10:34:36;;;;;;;5.47;2.40;;;;;;;1.10;100.00;97550.63;5010194;28;20827;-74
2022/01/28 10:37:22;;;;;;;3.83;2.37;;;;;;;1.27;100.00;97581.13;5010277;28;20434;-74
2022/01/28 10:39:52;;;;;;;1.93;1.73;;;;;;;1.25;100.00;97583.97;5010315;28;20431;-75
2022/01/28 10:42:48;;;;;;;5.57;2.40;;;;;;;1.33;100.00;97569.75;5010285;28;20494;-74
2022/01/28 10:45:18;;;;;;;3.47;2.00;;;;;;;1.42;100.00;97573.53;4994274;28;20522;-74
2022/01/28 10:47:56;;;;;;;4.43;1.97;;;;;;;1.11;100.00;97538.41;5010515;28;20546;-74
2022/01/28 10:50:35;;;;;;;4.30;2.10;;;;;;;1.22;100.00;97536.75;5011907;28;20525;-74
2022/01/28 10:53:19;;;;;;;6.20;1.73;;;;;;;1.36;100.00;97559.66;5010123;28;20485;-74
2022/01/28 10:55:49;;;;;;;5.53;1.70;;;;;;;1.42;100.00;97566.50;5010077;28;20489;-74
2022/01/28 10:58:18;;;;;;;8.63;2.43;;;;;;;1.50;100.00;97570.56;4994037;28;20446;-74
2022/01/28 11:00:50;;;;;;;2.20;2.00;;;;;;;1.64;100.00;97573.63;5010014;28;20501;-74
2022/01/28 11:03:24;;;;;;;5.43;1.80;;;;;;;1.43;100.00;97552.47;4993991;28;20450;-74
2022/01/28 11:05:56;;;;;;;12.93;2.37;;;;;;;1.63;100.00;97570.25;5010100;28;20440;-74
2022/01/28 11:08:26;;;;;;;4.87;1.73;;;;;;;1.71;100.00;97589.88;5011311;28;20477;-74
2022/01/28 11:10:52;;;;;;;9.27;2.27;;;;;;;1.23;100.00;97533.91;5010419;28;20482;-74
2022/01/28 11:13:19;;;;;;;7.67;3.30;;;;;;;1.44;100.00;97550.66;4997522;28;20846;-74
2022/01/28 11:15:46;;;;;;;4.80;1.83;;;;;;;1.60;100.00;97562.88;5015099;28;20801;-74
2022/01/28 11:18:14;;;;;;;2.40;1.90;;;;;;;1.86;100.00;97599.75;5013752;28;20448;-74
2022/01/28 11:20:45;;;;;;;8.10;2.80;;;;;;;1.94;100.00;97597.53;5013711;28;20485;-74
2022/01/28 11:23:25;;;;;;;7.53;2.10;;;;;;;1.78;100.00;97598.34;4997409;28;20582;-74
2022/01/28 11:26:26;;;;;;;4.00;1.70;;;;;;;1.74;100.00;97595.44;4997474;28;20434;-74
2022/01/28 11:28:56;;;;;;;1.87;1.70;;;;;;;1.69;100.00;97582.31;4997560;28;20466;-74
2022/01/28 11:31:43;;;;;;;5.63;1.60;;;;;;;1.59;100.00;97589.97;5013513;28;20513;-74
2022/01/28 11:34:27;;;;;;;4.57;2.67;;;;;;;1.55;100.00;97591.47;5013190;28;20482;-74
2022/01/28 11:36:56;;;;;;;4.40;2.47;;;;;;;1.40;100.00;97560.75;5013516;28;21001;-74
2022/01/28 11:39:28;;;;;;;5.07;2.37;;;;;;;1.77;100.00;97600.16;5013339;28;20493;-74
2022/01/28 11:42:04;;;;;;;6.10;2.30;;;;;;;1.70;100.00;97596.91;4997271;28;20467;-74
2022/01/28 11:44:50;;;;;;;2.50;1.70;;;;;;;1.88;100.00;97592.50;5016223;28;20501;-74
2022/01/28 11:47:40;;;;;;;3.93;1.87;;;;;;;1.81;100.00;97603.09;5014553;28;20426;-73
2022/01/28 11:50:07;;;;;;;8.07;2.97;;;;;;;1.69;100.00;97595.34;5014482;28;20451;-74
2022/01/28 11:52:40;;;;;;;3.57;2.33;;;;;;;1.63;100.00;97559.81;5014412;28;20948;-74
2022/01/28 11:55:23;;;;;;;4.37;3.90;;;;;;;1.90;100.00;97590.44;5014440;28;20490;-74
2022/01/28 11:58:01;;;;;;;2.70;2.43;;;;;;;1.87;100.00;97590.91;5014726;28;20419;-74
2022/01/28 12:00:35;;;;;;;1.57;1.30;;;;;;;1.82;100.00;97590.84;5013060;28;20509;-74
2022/01/28 12:03:15;;;;;;;5.47;1.97;;;;;;;1.68;100.00;97572.91;5012966;28;20510;-73
2022/01/28 12:05:42;;;;;;;6.03;1.90;;;;;;;1.80;100.00;97583.25;5012724;28;20435;-74
2022/01/28 12:08:11;;;;;;;5.03;2.03;;;;;;;1.93;100.00;97588.16;5012866;28;20431;-74
2022/01/28 12:10:43;;;;;;;5.80;2.50;;;;;;;1.94;100.00;97596.75;4996502;28;20495;-74
2022/01/28 12:13:14;;;;;;;5.73;1.63;;;;;;;1.59;100.00;97557.91;5012742;28;20575;-74
2022/01/28 12:16:13;;;;;;;4.27;2.33;;;;;;;1.96;100.00;97594.69;5013320;28;20478;-74
2022/01/28 12:18:57;;;;;;;3.00;2.73;;;;;;;1.97;100.00;97598.88;5014396;28;20498;-75
2022/01/28 12:21:31;;;;;;;4.00;1.80;;;;;;;1.70;100.00;97604.75;5013362;28;20807;-74
2022/01/28 12:24:20;;;;;;;9.70;2.23;;;;;;;1.57;100.00;97606.88;5012599;28;20458;-75
2022/01/28 12:27:06;;;;;;;2.90;2.23;;;;;;;1.46;100.00;97601.50;4996268;28;20439;-76
2022/01/28 12:29:50;;;;;;;11.33;2.23;;;;;;;1.45;100.00;97612.94;5014185;28;20896;-75
2022/01/28 12:32:22;;;;;;;6.63;2.90;;;;;;;1.33;100.00;97624.44;5013829;28;20422;-75
2022/01/28 12:34:50;;;;;;;3.60;2.13;;;;;;;1.15;100.00;97596.81;5013653;28;20466;-75
2022/01/28 12:37:23;;;;;;;8.20;2.60;;;;;;;0.93;100.00;97573.22;5012792;28;20485;-77
2022/01/28 12:40:00;;;;;;;5.70;2.53;;;;;;;1.04;100.00;97597.63;5015434;28;20832;-76
2022/01/28 12:42:27;;;;;;;3.40;2.23;;;;;;;0.90;100.00;97578.91;4997896;28;20465;-77
2022/01/28 12:44:57;;;;;;;5.80;2.33;;;;;;;1.20;100.00;97602.09;5015760;28;20508;-77
2022/01/28 12:47:25;;;;;;;3.27;1.97;;;;;;;1.48;100.00;97594.25;4997237;28;20478;-77
2022/01/28 12:49:59;;;;;;;6.40;2.37;;;;;;;1.48;100.00;97589.03;4997486;28;20550;-78
2022/01/28 12:52:26;;;;;;;4.53;2.60;;;;;;;1.46;100.00;97579.84;4997765;28;20454;-78
2022/01/28 12:54:52;;;;;;;6.07;3.10;;;;;;;1.59;100.00;97578.75;5013299;28;20821;-76
2022/01/28 12:57:20;;;;;;;5.50;2.23;;;;;;;1.80;100.00;97578.03;5012593;28;20442;-76
2022/01/28 12:59:50;;;;;;;9.33;2.13;;;;;;;1.96;100.00;97573.84;4997804;28;20439;-79
2022/01/28 13:02:18;;;;;;;6.70;2.37;;;;;;;2.01;100.00;97603.41;4999515;28;20509;-78
2022/01/28 13:08:24;;;;;;;3.83;1.90;;;;;;;1.84;100.00;97612.25;5011953;28;20991;-75
2022/01/28 13:10:03;;;;;;;12.47;3.10;;;;;;;1.80;100.00;97585.06;5012068;28;20529;-75
2022/01/28 13:12:31;;;;;;;12.87;3.00;;;;;;;1.95;100.00;97616.59;5012317;28;20489;-75
2022/01/28 13:15:07;;;;;;;7.40;2.70;;;;;;;2.21;100.00;97615.91;5012818;28;20893;-77
2022/01/28 13:17:34;;;;;;;7.80;2.20;;;;;;;2.28;100.00;97576.63;5014949;28;20517;-76
2022/01/28 13:20:06;;;;;;;10.20;2.80;;;;;;;2.26;100.00;97615.97;5014526;28;20431;-77
2022/01/28 13:22:33;;;;;;;7.30;2.30;;;;;;;2.41;100.00;97570.25;5013802;28;20775;-76
2022/01/28 13:25:00;;;;;;;12.60;2.60;;;;;;;2.34;100.00;97581.66;5013428;28;20505;-77